sensor_id;sensor_type;location;lat;lon;timestamp;pressure;altitude;pressure_sealevel;temperature;humidity
71643;BME280;59438;45.014;39.006;2023-03-04T11:45:46;101237.03;;;7.18;72.49
71643;BME280;59438;45.014;39.006;2023-03-04T11:48:21;101215.28;;;7.16;71.22
71643;BME280;59438;45.014;39.006;2023-03-04T11:50:56;101240.91;;;7.50;71.50
71643;BME280;59438;45.014;39.006;2023-03-04T11:53:32;101247.75;;;7.57;71.69
71643;BME280;59438;45.014;39.006;2023-03-04T11:56:23;101226.84;;;7.57;71.28
71643;BME280;59438;45.014;39.006;2023-03-04T12:01:49;101209.25;;;7.67;71.43
71643;BME280;59438;45.014;39.006;2023-03-04T12:04:36;101248.09;;;7.88;71.52
71643;BME280;59438;45.014;39.006;2023-03-04T12:07:28;101243.75;;;7.89;70.38
71643;BME280;59438;45.014;39.006;2023-03-04T12:10:12;101243.72;;;7.91;69.94
71643;BME280;59438;45.014;39.006;2023-03-04T12:12:55;101252.38;;;7.94;70.25
71643;BME280;59438;45.014;39.006;2023-03-04T12:15:32;101243.66;;;7.95;70.03
71643;BME280;59438;45.014;39.006;2023-03-04T12:18:12;101221.16;;;7.85;69.40
71643;BME280;59438;45.014;39.006;2023-03-04T12:21:15;101228.09;;;7.87;69.24
71643;BME280;59438;45.014;39.006;2023-03-04T12:24:21;101241.91;;;7.96;69.52
71643;BME280;59438;45.014;39.006;2023-03-04T12:55:37;101215.63;;;8.02;68.60
71643;BME280;59438;45.014;39.006;2023-03-04T12:58:25;101244.00;;;8.23;68.44
71643;BME280;59438;45.014;39.006;2023-03-04T13:01:17;101218.78;;;8.19;68.25
71643;BME280;59438;45.014;39.006;2023-03-04T13:04:12;101235.25;;;8.26;68.11
71643;BME280;59438;45.014;39.006;2023-03-04T13:07:10;101217.91;;;8.20;68.09
71643;BME280;59438;45.014;39.006;2023-03-04T13:10:04;101227.47;;;8.21;68.19
71643;BME280;59438;45.014;39.006;2023-03-04T13:12:55;101224.91;;;8.18;67.96
71643;BME280;59438;45.014;39.006;2023-03-04T13:15:42;101227.47;;;8.21;68.08
71643;BME280;59438;45.014;39.006;2023-03-04T13:18:30;101227.47;;;8.21;68.46
71643;BME280;59438;45.014;39.006;2023-03-04T13:21:22;101230.09;;;8.21;68.42
71643;BME280;59438;45.014;39.006;2023-03-04T13:24:43;101230.06;;;8.23;68.43
71643;BME280;59438;45.014;39.006;2023-03-04T13:27:48;101222.28;;;8.20;68.08
71643;BME280;59438;45.014;39.006;2023-03-04T13:31:05;101218.78;;;8.19;68.80
71643;BME280;59438;45.014;39.006;2023-03-04T13:34:00;101208.59;;;8.05;68.59
71643;BME280;59438;45.014;39.006;2023-03-04T13:36:55;101214.47;;;8.17;68.47
71643;BME280;59438;45.014;39.006;2023-03-04T13:39:42;101212.72;;;8.17;67.92
71643;BME280;59438;45.014;39.006;2023-03-04T13:42:40;101214.44;;;8.18;69.00
71643;BME280;59438;45.014;39.006;2023-03-04T13:45:32;101207.47;;;8.17;68.44
71643;BME280;59438;45.014;39.006;2023-03-04T13:48:27;101208.38;;;8.18;68.97
71643;BME280;59438;45.014;39.006;2023-03-04T13:51:17;101211.84;;;8.17;68.25
71643;BME280;59438;45.014;39.006;2023-03-04T13:54:13;101208.38;;;8.16;69.21
71643;BME280;59438;45.014;39.006;2023-03-04T13:57:16;101205.78;;;8.15;69.59
71643;BME280;59438;45.014;39.006;2023-03-04T14:00:05;101193.75;;;8.06;68.52
71643;BME280;59438;45.014;39.006;2023-03-04T14:03:11;101165.19;;;7.94;69.48
71643;BME280;59438;45.014;39.006;2023-03-04T14:06:27;101203.31;;;8.07;69.87
71643;BME280;59438;45.014;39.006;2023-03-04T14:09:14;101201.63;;;8.03;68.74
71643;BME280;59438;45.014;39.006;2023-03-04T14:12:03;101174.00;;;7.90;68.90
71643;BME280;59438;45.014;39.006;2023-03-04T14:14:52;101190.44;;;7.96;69.41
71643;BME280;59438;45.014;39.006;2023-03-04T14:17:44;101162.84;;;7.80;69.61
71643;BME280;59438;45.014;39.006;2023-03-04T14:20:33;101186.25;;;7.87;69.18
71643;BME280;59438;45.014;39.006;2023-03-04T14:23:26;101178.31;;;7.92;70.37
71643;BME280;59438;45.014;39.006;2023-03-04T14:26:03;101168.97;;;7.79;70.49
71643;BME280;59438;45.014;39.006;2023-03-04T14:28:30;101174.13;;;7.82;68.92
71643;BME280;59438;45.014;39.006;2023-03-04T14:30:56;101181.00;;;7.87;69.55
71643;BME280;59438;45.014;39.006;2023-03-04T14:33:24;101175.84;;;7.84;69.04
71643;BME280;59438;45.014;39.006;2023-03-04T14:35:53;101163.75;;;7.77;69.83
71643;BME280;59438;45.014;39.006;2023-03-04T14:38:26;101173.25;;;7.83;70.41
71643;BME280;59438;45.014;39.006;2023-03-04T14:40:56;101155.16;;;7.71;70.16
71643;BME280;59438;45.014;39.006;2023-03-04T14:43:23;101176.75;;;7.82;69.81
71643;BME280;59438;45.014;39.006;2023-03-04T14:47:14;101168.94;;;7.80;70.67
71643;BME280;59438;45.014;39.006;2023-03-04T14:49:42;101166.38;;;7.77;69.73
71643;BME280;59438;45.014;39.006;2023-03-04T14:52:31;101169.06;;;7.74;71.35
71643;BME280;59438;45.014;39.006;2023-03-04T14:54:59;101176.00;;;7.75;69.76
71643;BME280;59438;45.014;39.006;2023-03-04T14:57:30;101166.47;;;7.73;70.48
71643;BME280;59438;45.014;39.006;2023-03-04T15:00:13;101169.94;;;7.73;71.10
71643;BME280;59438;45.014;39.006;2023-03-04T15:02:43;101169.06;;;7.73;70.72
71643;BME280;59438;45.014;39.006;2023-03-04T15:05:15;101163.06;;;7.67;70.03
71643;BME280;59438;45.014;39.006;2023-03-04T15:07:43;101151.00;;;7.59;70.05
71643;BME280;59438;45.014;39.006;2023-03-04T15:10:21;101139.81;;;7.51;70.41
71643;BME280;59438;45.014;39.006;2023-03-04T15:12:51;101174.34;;;7.70;70.16
71643;BME280;59438;45.014;39.006;2023-03-04T15:15:38;101166.50;;;7.70;71.65
71643;BME280;59438;45.014;39.006;2023-03-04T15:18:17;101133.94;;;7.39;70.89
71643;BME280;59438;45.014;39.006;2023-03-04T15:20:51;101174.31;;;7.71;71.60
71643;BME280;59438;45.014;39.006;2023-03-04T15:23:17;101184.88;;;7.66;69.62
71643;BME280;59438;45.014;39.006;2023-03-04T15:25:44;101180.59;;;7.61;69.77
71643;BME280;59438;45.014;39.006;2023-03-04T15:28:14;101145.22;;;7.41;70.94
71643;BME280;59438;45.014;39.006;2023-03-04T15:30:42;101191.03;;;7.62;69.69
71643;BME280;59438;45.014;39.006;2023-03-04T15:33:10;101181.53;;;7.57;69.87
71643;BME280;59438;45.014;39.006;2023-03-04T15:35:38;101194.53;;;7.61;70.20
71643;BME280;59438;45.014;39.006;2023-03-04T15:38:09;101187.59;;;7.60;69.81
71643;BME280;59438;45.014;39.006;2023-03-04T15:40:38;101193.69;;;7.61;69.66
71643;BME280;59438;45.014;39.006;2023-03-04T15:43:06;101191.06;;;7.61;70.50
71643;BME280;59438;45.014;39.006;2023-03-04T15:45:34;101197.19;;;7.60;69.71
71643;BME280;59438;45.014;39.006;2023-03-04T15:48:00;101190.22;;;7.59;69.76
71643;BME280;59438;45.014;39.006;2023-03-04T15:50:28;101203.31;;;7.57;69.79
71643;BME280;59438;45.014;39.006;2023-03-04T15:52:59;101198.06;;;7.59;70.66
71643;BME280;59438;45.014;39.006;2023-03-04T15:55:26;101197.31;;;7.54;70.30
71643;BME280;59438;45.014;39.006;2023-03-04T15:57:55;101212.03;;;7.58;70.05
71643;BME280;59438;45.014;39.006;2023-03-04T16:00:22;101199.09;;;7.50;70.07
71643;BME280;59438;45.014;39.006;2023-03-04T16:02:49;101206.84;;;7.56;70.45
71643;BME280;59438;45.014;39.006;2023-03-04T16:05:15;101208.59;;;7.56;70.52
71643;BME280;59438;45.014;39.006;2023-03-04T16:07:44;101207.72;;;7.55;70.82
71643;BME280;59438;45.014;39.006;2023-03-04T16:10:19;101208.63;;;7.53;71.26
71643;BME280;59438;45.014;39.006;2023-03-04T16:12:46;101222.53;;;7.56;70.62
71643;BME280;59438;45.014;39.006;2023-03-04T16:15:14;101204.31;;;7.50;70.89
71643;BME280;59438;45.014;39.006;2023-03-04T16:17:41;101198.25;;;7.50;70.45
71643;BME280;59438;45.014;39.006;2023-03-04T16:20:09;101203.38;;;7.54;70.38
71643;BME280;59438;45.014;39.006;2023-03-04T16:22:36;101196.56;;;7.45;70.13
71643;BME280;59438;45.014;39.006;2023-03-04T16:25:03;101214.72;;;7.53;70.54
71643;BME280;59438;45.014;39.006;2023-03-04T16:27:31;101207.78;;;7.52;70.86
71643;BME280;59438;45.014;39.006;2023-03-04T16:29:57;101202.56;;;7.49;70.78
71643;BME280;59438;45.014;39.006;2023-03-04T16:32:24;101208.63;;;7.53;70.77
71643;BME280;59438;45.014;39.006;2023-03-04T16:34:50;101209.53;;;7.52;70.32
71643;BME280;59438;45.014;39.006;2023-03-04T16:37:18;101207.78;;;7.51;70.96
71643;BME280;59438;45.014;39.006;2023-03-04T16:39:45;101170.56;;;7.36;70.67
71643;BME280;59438;45.014;39.006;2023-03-04T16:42:14;101191.34;;;7.45;70.75
71643;BME280;59438;45.014;39.006;2023-03-04T16:44:42;101191.38;;;7.42;70.88
71643;BME280;59438;45.014;39.006;2023-03-04T16:47:09;101197.44;;;7.44;70.29
71643;BME280;59438;45.014;39.006;2023-03-04T16:49:35;101188.75;;;7.44;70.78
71643;BME280;59438;45.014;39.006;2023-03-04T16:52:01;101196.50;;;7.47;70.87
71643;BME280;59438;45.014;39.006;2023-03-04T16:54:29;101183.53;;;7.41;70.50
71643;BME280;59438;45.014;39.006;2023-03-04T16:56:57;101191.34;;;7.45;70.69
71643;BME280;59438;45.014;39.006;2023-03-04T16:59:24;101192.19;;;7.44;70.68
71643;BME280;59438;45.014;39.006;2023-03-04T17:01:53;101185.31;;;7.40;71.64
71643;BME280;59438;45.014;39.006;2023-03-04T17:04:20;101200.94;;;7.43;70.42
71643;BME280;59438;45.014;39.006;2023-03-04T17:06:46;101186.13;;;7.42;70.54
71643;BME280;59438;45.014;39.006;2023-03-04T17:09:13;101181.00;;;7.36;70.21
71643;BME280;59438;45.014;39.006;2023-03-04T17:11:39;101190.53;;;7.40;70.85
71643;BME280;59438;45.014;39.006;2023-03-04T17:14:05;101194.03;;;7.39;70.61
71643;BME280;59438;45.014;39.006;2023-03-04T17:16:32;101181.94;;;7.32;70.81
71643;BME280;59438;45.014;39.006;2023-03-04T17:19:00;101172.50;;;7.25;71.24
71643;BME280;59438;45.014;39.006;2023-03-04T17:21:26;101188.91;;;7.33;71.15
71643;BME280;59438;45.014;39.006;2023-03-04T17:23:53;101190.72;;;7.28;70.95
71643;BME280;59438;45.014;39.006;2023-03-04T17:26:20;101186.31;;;7.32;71.20
71643;BME280;59438;45.014;39.006;2023-03-04T17:28:46;101200.22;;;7.35;70.51
71643;BME280;59438;45.014;39.006;2023-03-04T17:31:15;101203.69;;;7.36;70.98
71643;BME280;59438;45.014;39.006;2023-03-04T17:33:42;101183.81;;;7.25;71.23
71643;BME280;59438;45.014;39.006;2023-03-04T17:36:12;101192.38;;;7.34;71.91
71643;BME280;59438;45.014;39.006;2023-03-04T17:38:39;101126.84;;;6.92;70.86
71643;BME280;59438;45.014;39.006;2023-03-04T17:41:07;101197.63;;;7.32;71.32
71643;BME280;59438;45.014;39.006;2023-03-04T17:43:33;101188.09;;;7.30;70.65
71643;BME280;59438;45.014;39.006;2023-03-04T17:46:04;101157.03;;;7.10;71.88
71643;BME280;59438;45.014;39.006;2023-03-04T17:48:31;101182.09;;;7.23;71.29
71643;BME280;59438;45.014;39.006;2023-03-04T17:50:58;101194.16;;;7.32;70.82
71643;BME280;59438;45.014;39.006;2023-03-04T17:53:26;101183.81;;;7.24;70.93
71643;BME280;59438;45.014;39.006;2023-03-04T17:55:53;101198.47;;;7.33;70.89
71643;BME280;59438;45.014;39.006;2023-03-04T17:58:20;101200.22;;;7.35;71.38
71643;BME280;59438;45.014;39.006;2023-03-04T18:00:47;101202.81;;;7.35;70.74
71643;BME280;59438;45.014;39.006;2023-03-04T18:03:14;101197.59;;;7.35;71.37
71643;BME280;59438;45.014;39.006;2023-03-04T18:05:40;101192.31;;;7.37;71.23
71643;BME280;59438;45.014;39.006;2023-03-04T18:08:07;101153.50;;;7.14;70.55
71643;BME280;59438;45.014;39.006;2023-03-04T18:10:35;101162.91;;;7.25;71.25
71643;BME280;59438;45.014;39.006;2023-03-04T18:13:02;101185.38;;;7.37;71.10
71643;BME280;59438;45.014;39.006;2023-03-04T18:15:28;101184.47;;;7.38;71.00
71643;BME280;59438;45.014;39.006;2023-03-04T18:17:54;101169.81;;;7.30;71.17
71643;BME280;59438;45.014;39.006;2023-03-04T18:20:21;101165.44;;;7.30;70.83
71643;BME280;59438;45.014;39.006;2023-03-04T18:22:47;101163.78;;;7.24;70.61
71643;BME280;59438;45.014;39.006;2023-03-04T18:25:14;101179.25;;;7.38;71.13
71643;BME280;59438;45.014;39.006;2023-03-04T18:27:42;101161.97;;;7.28;71.38
71643;BME280;59438;45.014;39.006;2023-03-04T18:30:10;101178.31;;;7.41;71.46
71643;BME280;59438;45.014;39.006;2023-03-04T18:32:38;101177.47;;;7.40;70.63
71643;BME280;59438;45.014;39.006;2023-03-04T18:35:05;101172.22;;;7.42;70.54
71643;BME280;59438;45.014;39.006;2023-03-04T18:37:32;101168.75;;;7.41;70.71
71643;BME280;59438;45.014;39.006;2023-03-04T18:39:58;101164.47;;;7.37;71.17
71643;BME280;59438;45.014;39.006;2023-03-04T18:42:24;101141.94;;;7.29;70.60
71643;BME280;59438;45.014;39.006;2023-03-04T18:44:52;101148.88;;;7.31;70.98
71643;BME280;59438;45.014;39.006;2023-03-04T18:47:19;101171.31;;;7.43;71.40
71643;BME280;59438;45.014;39.006;2023-03-04T18:49:46;101165.22;;;7.44;71.35
71643;BME280;59438;45.014;39.006;2023-03-04T18:52:13;101166.06;;;7.44;70.91
71643;BME280;59438;45.014;39.006;2023-03-04T18:54:39;101153.94;;;7.40;70.66
71643;BME280;59438;45.014;39.006;2023-03-04T18:57:07;101166.91;;;7.45;70.96
71643;BME280;59438;45.014;39.006;2023-03-04T18:59:37;101158.25;;;7.43;71.09
71643;BME280;59438;45.014;39.006;2023-03-04T19:02:13;101106.44;;;7.17;71.53
71643;BME280;59438;45.014;39.006;2023-03-04T19:04:42;101155.63;;;7.44;71.11
71643;BME280;59438;45.014;39.006;2023-03-04T19:07:09;101154.75;;;7.44;70.70
71643;BME280;59438;45.014;39.006;2023-03-04T19:09:35;101153.84;;;7.45;71.35
71643;BME280;59438;45.014;39.006;2023-03-04T19:12:02;101142.63;;;7.40;71.14
71643;BME280;59438;45.014;39.006;2023-03-04T19:14:28;101156.53;;;7.43;71.30
71643;BME280;59438;45.014;39.006;2023-03-04T19:16:54;101140.88;;;7.40;71.39
71643;BME280;59438;45.014;39.006;2023-03-04T19:19:22;101152.16;;;7.42;71.24
71643;BME280;59438;45.014;39.006;2023-03-04T19:21:49;101124.47;;;7.31;71.49
71643;BME280;59438;45.014;39.006;2023-03-04T19:24:15;101134.91;;;7.34;70.89
71643;BME280;59438;45.014;39.006;2023-03-04T19:26:41;101141.72;;;7.42;71.39
71643;BME280;59438;45.014;39.006;2023-03-04T19:29:08;101128.63;;;7.42;71.57
71643;BME280;59438;45.014;39.006;2023-03-04T19:31:37;101130.38;;;7.43;71.99
71643;BME280;59438;45.014;39.006;2023-03-04T19:34:04;101099.25;;;7.28;71.10
71643;BME280;59438;45.014;39.006;2023-03-04T19:36:31;101127.78;;;7.42;71.88
71643;BME280;59438;45.014;39.006;2023-03-04T19:38:58;101133.00;;;7.42;71.62
71643;BME280;59438;45.014;39.006;2023-03-04T19:41:24;101130.41;;;7.42;71.40
71643;BME280;59438;45.014;39.006;2023-03-04T19:43:50;101126.94;;;7.41;71.10
71643;BME280;59438;45.014;39.006;2023-03-04T19:46:17;101126.09;;;7.39;71.42
71643;BME280;59438;45.014;39.006;2023-03-04T19:48:43;101126.03;;;7.42;71.36
71643;BME280;59438;45.014;39.006;2023-03-04T19:51:13;101121.81;;;7.34;72.53
71643;BME280;59438;45.014;39.006;2023-03-04T19:53:42;101124.31;;;7.41;71.90
71643;BME280;59438;45.014;39.006;2023-03-04T19:56:08;101127.81;;;7.40;72.03
71643;BME280;59438;45.014;39.006;2023-03-04T19:58:35;101113.19;;;7.29;71.95
71643;BME280;59438;45.014;39.006;2023-03-04T20:01:02;101126.94;;;7.40;72.46
71643;BME280;59438;45.014;39.006;2023-03-04T20:03:29;101113.91;;;7.38;72.44
71643;BME280;59438;45.014;39.006;2023-03-04T20:06:01;101112.19;;;7.37;73.41
71643;BME280;59438;45.014;39.006;2023-03-04T20:08:28;101088.06;;;7.21;72.19
71643;BME280;59438;45.014;39.006;2023-03-04T20:10:56;101099.16;;;7.34;73.05
71643;BME280;59438;45.014;39.006;2023-03-04T20:13:22;101075.84;;;7.23;72.72
71643;BME280;59438;45.014;39.006;2023-03-04T20:15:49;101084.50;;;7.27;72.74
71643;BME280;59438;45.014;39.006;2023-03-04T20:18:15;101104.38;;;7.36;72.92
71643;BME280;59438;45.014;39.006;2023-03-04T20:20:41;101101.78;;;7.33;72.39
71643;BME280;59438;45.014;39.006;2023-03-04T20:23:08;101100.91;;;7.35;72.92
71643;BME280;59438;45.014;39.006;2023-03-04T20:25:35;101106.13;;;7.35;72.70
71643;BME280;59438;45.014;39.006;2023-03-04T20:28:03;101093.16;;;7.29;73.14
71643;BME280;59438;45.014;39.006;2023-03-04T20:30:29;101108.69;;;7.37;73.01
71643;BME280;59438;45.014;39.006;2023-03-04T20:32:55;101105.19;;;7.38;72.83
71643;BME280;59438;45.014;39.006;2023-03-04T20:35:22;101101.75;;;7.37;73.70
71643;BME280;59438;45.014;39.006;2023-03-04T20:37:48;101105.19;;;7.38;72.98
71643;BME280;59438;45.014;39.006;2023-03-04T20:40:14;101093.91;;;7.36;73.03
71643;BME280;59438;45.014;39.006;2023-03-04T20:42:41;101099.13;;;7.37;73.06
71643;BME280;59438;45.014;39.006;2023-03-04T20:45:09;101099.97;;;7.38;73.72
71643;BME280;59438;45.014;39.006;2023-03-04T20:47:36;101081.81;;;7.29;73.06
71643;BME280;59438;45.014;39.006;2023-03-04T20:50:03;101086.19;;;7.28;73.17
71643;BME280;59438;45.014;39.006;2023-03-04T20:52:29;101094.97;;;7.24;73.71
71643;BME280;59438;45.014;39.006;2023-03-04T20:54:55;101096.56;;;7.34;73.39
71643;BME280;59438;45.014;39.006;2023-03-04T20:57:22;101093.00;;;7.37;73.45
71643;BME280;59438;45.014;39.006;2023-03-04T20:59:48;101096.50;;;7.37;73.74
71643;BME280;59438;45.014;39.006;2023-03-04T21:02:16;101093.06;;;7.35;74.57
71643;BME280;59438;45.014;39.006;2023-03-04T21:04:43;101095.63;;;7.37;74.33
71643;BME280;59438;45.014;39.006;2023-03-04T21:07:10;101090.38;;;7.38;74.17
71643;BME280;59438;45.014;39.006;2023-03-04T21:09:37;101085.16;;;7.37;74.29
71643;BME280;59438;45.014;39.006;2023-03-04T21:12:03;101077.50;;;7.29;73.86
71643;BME280;59438;45.014;39.006;2023-03-04T21:14:30;101088.69;;;7.36;74.42
71643;BME280;59438;45.014;39.006;2023-03-04T21:16:58;101081.66;;;7.39;74.57
71643;BME280;59438;45.014;39.006;2023-03-04T21:19:28;101077.38;;;7.35;74.37
71643;BME280;59438;45.014;39.006;2023-03-04T21:21:55;101078.16;;;7.40;74.46
71643;BME280;59438;45.014;39.006;2023-03-04T21:24:24;101082.59;;;7.35;74.52
71643;BME280;59438;45.014;39.006;2023-03-04T21:26:51;101080.72;;;7.43;74.09
71643;BME280;59438;45.014;39.006;2023-03-04T21:29:19;101084.22;;;7.42;74.23
71643;BME280;59438;45.014;39.006;2023-03-04T21:31:48;101079.91;;;7.38;75.17
71643;BME280;59438;45.014;39.006;2023-03-04T21:34:17;101066.03;;;7.36;74.89
71643;BME280;59438;45.014;39.006;2023-03-04T21:36:45;101073.75;;;7.42;74.74
71643;BME280;59438;45.014;39.006;2023-03-04T21:39:14;101065.16;;;7.37;75.21
71643;BME280;59438;45.014;39.006;2023-03-04T21:41:40;101066.84;;;7.38;74.95
71643;BME280;59438;45.014;39.006;2023-03-04T21:44:07;101042.69;;;7.27;74.36
71643;BME280;59438;45.014;39.006;2023-03-04T21:46:33;101052.13;;;7.34;74.39
71643;BME280;59438;45.014;39.006;2023-03-04T21:49:00;101058.16;;;7.39;74.33
71643;BME280;59438;45.014;39.006;2023-03-04T21:51:26;101050.34;;;7.36;74.80
71643;BME280;59438;45.014;39.006;2023-03-04T21:53:54;101052.94;;;7.38;75.12
71643;BME280;59438;45.014;39.006;2023-03-04T21:56:21;101030.50;;;7.26;74.28
71643;BME280;59438;45.014;39.006;2023-03-04T21:58:47;101040.78;;;7.35;74.70
71643;BME280;59438;45.014;39.006;2023-03-04T22:01:16;101043.28;;;7.41;74.64
71643;BME280;59438;45.014;39.006;2023-03-04T22:03:43;101017.41;;;7.28;74.86
71643;BME280;59438;45.014;39.006;2023-03-04T22:06:12;101019.19;;;7.25;75.00
71643;BME280;59438;45.014;39.006;2023-03-04T22:08:38;101045.00;;;7.42;75.06
71643;BME280;59438;45.014;39.006;2023-03-04T22:11:08;101055.44;;;7.44;75.67
71643;BME280;59438;45.014;39.006;2023-03-04T22:13:35;101021.78;;;7.27;74.65
71643;BME280;59438;45.014;39.006;2023-03-04T22:16:03;101056.31;;;7.43;74.85
71643;BME280;59438;45.014;39.006;2023-03-04T22:18:29;101051.09;;;7.43;74.81
71643;BME280;59438;45.014;39.006;2023-03-04T22:21:00;101041.50;;;7.43;76.57
71643;BME280;59438;45.014;39.006;2023-03-04T22:23:27;101037.25;;;7.38;75.01
71643;BME280;59438;45.014;39.006;2023-03-04T22:25:53;101051.06;;;7.44;74.76
71643;BME280;59438;45.014;39.006;2023-03-04T22:28:21;101051.03;;;7.46;74.93
71643;BME280;59438;45.014;39.006;2023-03-04T22:30:48;101039.78;;;7.41;75.51
71643;BME280;59438;45.014;39.006;2023-03-04T22:33:14;101019.94;;;7.31;75.25
71643;BME280;59438;45.014;39.006;2023-03-04T22:35:40;101056.25;;;7.47;74.99
71643;BME280;59438;45.014;39.006;2023-03-04T22:38:07;101041.56;;;7.40;75.02
71643;BME280;59438;45.014;39.006;2023-03-04T22:40:33;101041.44;;;7.46;75.67
71643;BME280;59438;45.014;39.006;2023-03-04T22:43:00;101048.44;;;7.46;75.17
71643;BME280;59438;45.014;39.006;2023-03-04T22:45:29;101019.94;;;7.32;76.37
71643;BME280;59438;45.014;39.006;2023-03-04T22:47:55;101050.19;;;7.45;75.59
71643;BME280;59438;45.014;39.006;2023-03-04T22:50:22;101040.59;;;7.46;75.21
71643;BME280;59438;45.014;39.006;2023-03-04T22:52:48;101050.97;;;7.49;75.74
71643;BME280;59438;45.014;39.006;2023-03-04T22:55:16;101035.38;;;7.46;75.92
71643;BME280;59438;45.014;39.006;2023-03-04T22:57:42;101041.41;;;7.50;75.93
71643;BME280;59438;45.014;39.006;2023-03-04T23:00:16;100986.19;;;7.20;76.58
71643;BME280;59438;45.014;39.006;2023-03-04T23:02:44;101023.22;;;7.43;76.18
71643;BME280;59438;45.014;39.006;2023-03-04T23:05:11;101030.06;;;7.49;75.78
71643;BME280;59438;45.014;39.006;2023-03-04T23:07:38;101019.72;;;7.43;75.55
71643;BME280;59438;45.014;39.006;2023-03-04T23:10:05;101028.34;;;7.50;75.34
71643;BME280;59438;45.014;39.006;2023-03-04T23:12:33;101005.78;;;7.44;75.80
71643;BME280;59438;45.014;39.006;2023-03-04T23:15:00;101004.88;;;7.45;75.65
71643;BME280;59438;45.014;39.006;2023-03-04T23:17:26;101010.91;;;7.49;75.91
71643;BME280;59438;45.014;39.006;2023-03-04T23:19:54;101004.84;;;7.46;75.91
71643;BME280;59438;45.014;39.006;2023-03-04T23:22:20;101001.44;;;7.43;75.95
71643;BME280;59438;45.014;39.006;2023-03-04T23:24:47;101005.75;;;7.45;75.98
71643;BME280;59438;45.014;39.006;2023-03-04T23:27:13;100984.13;;;7.37;75.94
71643;BME280;59438;45.014;39.006;2023-03-04T23:29:39;100998.75;;;7.47;75.67
71643;BME280;59438;45.014;39.006;2023-03-04T23:32:06;100986.66;;;7.42;75.64
71643;BME280;59438;45.014;39.006;2023-03-04T23:34:32;100995.31;;;7.45;75.73
71643;BME280;59438;45.014;39.006;2023-03-04T23:37:00;100981.47;;;7.39;76.07
71643;BME280;59438;45.014;39.006;2023-03-04T23:39:27;100999.66;;;7.45;76.41
71643;BME280;59438;45.014;39.006;2023-03-04T23:41:53;100994.53;;;7.39;76.47
71643;BME280;59438;45.014;39.006;2023-03-04T23:44:19;100991.91;;;7.40;76.11
71643;BME280;59438;45.014;39.006;2023-03-04T23:46:46;100973.75;;;7.33;76.34
71643;BME280;59438;45.014;39.006;2023-03-04T23:49:12;100979.88;;;7.32;76.06
71643;BME280;59438;45.014;39.006;2023-03-04T23:51:39;100978.00;;;7.38;76.26
71643;BME280;59438;45.014;39.006;2023-03-04T23:54:07;100984.13;;;7.37;76.71
71643;BME280;59438;45.014;39.006;2023-03-04T23:56:34;100986.75;;;7.37;76.07
71643;BME280;59438;45.014;39.006;2023-03-04T23:59:00;100976.34;;;7.34;76.38
